createdAt,value
2022-08-17T00:02:25.494Z,0.10
2022-08-17T00:05:36.290Z,0.17
2022-08-17T00:08:46.767Z,0.10
2022-08-17T00:12:40.410Z,0.00
2022-08-17T00:15:21.855Z,0.10
2022-08-17T00:19:01.182Z,0.00
2022-08-17T00:22:32.677Z,0.10
2022-08-17T00:25:28.720Z,0.10
2022-08-17T00:28:35.632Z,0.10
2022-08-17T00:31:43.201Z,0.00
2022-08-17T00:34:50.041Z,0.20
2022-08-17T00:37:56.634Z,0.00
2022-08-17T00:41:08.038Z,0.52
2022-08-17T00:44:15.564Z,0.00
2022-08-17T00:47:22.151Z,0.05
2022-08-17T00:50:28.882Z,0.00
2022-08-17T00:53:38.759Z,0.20
2022-08-17T00:56:49.869Z,0.35
2022-08-17T01:00:02.298Z,0.10
2022-08-17T01:03:25.301Z,0.30
2022-08-17T01:06:31.687Z,0.10
2022-08-17T01:09:38.650Z,0.00
2022-08-17T01:12:47.007Z,0.10
2022-08-17T01:15:58.650Z,0.00
2022-08-17T01:19:07.564Z,0.00
2022-08-17T01:22:21.255Z,0.03
2022-08-17T01:25:29.765Z,0.10
2022-08-17T01:28:54.542Z,0.00
2022-08-17T01:32:05.006Z,0.00
2022-08-17T01:35:11.419Z,0.08
2022-08-17T01:38:27.069Z,0.00
2022-08-17T01:41:34.316Z,0.10
2022-08-17T01:44:41.223Z,0.10
2022-08-17T01:47:47.747Z,0.15
2022-08-17T01:50:55.066Z,0.05
2022-08-17T01:54:06.157Z,0.10
2022-08-17T01:57:13.056Z,0.10
2022-08-17T02:00:19.954Z,0.00
2022-08-17T02:03:27.432Z,0.05
2022-08-17T02:06:52.643Z,0.10
2022-08-17T02:10:01.387Z,0.00
2022-08-17T02:13:09.065Z,0.20
2022-08-17T02:16:16.920Z,0.28
2022-08-17T02:19:24.110Z,0.10
2022-08-17T02:22:31.538Z,0.30
2022-08-17T02:25:40.339Z,0.10
2022-08-17T02:28:46.952Z,0.00
2022-08-17T02:31:54.200Z,0.00
2022-08-17T02:35:01.591Z,0.20
2022-08-17T02:38:08.751Z,0.10
2022-08-17T02:41:17.118Z,0.28
2022-08-17T02:44:38.708Z,0.20
2022-08-17T02:47:47.359Z,0.00
2022-08-17T02:50:53.972Z,0.00
2022-08-17T02:54:39.148Z,0.10
2022-08-17T02:57:28.448Z,0.15
2022-08-17T03:00:38.104Z,0.00
2022-08-17T03:03:44.737Z,0.10
2022-08-17T03:06:51.588Z,0.20
2022-08-17T03:09:58.432Z,0.22
2022-08-17T03:13:06.816Z,0.25
2022-08-17T03:16:13.647Z,0.38
2022-08-17T03:19:20.553Z,0.00
2022-08-17T03:22:37.231Z,0.10
2022-08-17T03:25:46.208Z,0.00
2022-08-17T03:28:54.954Z,0.60
2022-08-17T03:32:02.959Z,0.20
2022-08-17T03:35:11.029Z,0.00
2022-08-17T03:38:20.023Z,0.20
2022-08-17T03:41:31.524Z,0.30
2022-08-17T03:44:40.243Z,0.30
2022-08-17T03:48:04.816Z,0.43
2022-08-17T03:51:36.823Z,0.05
2022-08-17T03:55:01.931Z,0.50
2022-08-17T03:58:08.531Z,0.10
2022-08-17T04:01:17.905Z,0.35
2022-08-17T04:04:27.711Z,0.45
2022-08-17T04:07:34.610Z,0.20
2022-08-17T04:10:45.179Z,0.20
2022-08-17T04:13:52.145Z,0.63
2022-08-17T04:17:00.121Z,0.20
2022-08-17T04:20:08.216Z,0.65
2022-08-17T04:23:18.710Z,0.10
2022-08-17T04:26:54.127Z,0.10
2022-08-17T04:29:55.137Z,0.20
2022-08-17T04:33:08.837Z,0.10
2022-08-17T04:36:16.585Z,0.15
2022-08-17T04:39:25.181Z,0.13
2022-08-17T04:42:32.439Z,0.10
2022-08-17T04:45:40.917Z,0.15
2022-08-17T04:49:06.462Z,0.30
2022-08-17T04:52:29.784Z,0.20
2022-08-17T04:55:40.799Z,0.65
2022-08-17T04:58:50.195Z,0.28
2022-08-17T05:01:57.086Z,0.35
2022-08-17T05:05:06.046Z,0.25
2022-08-17T05:08:13.825Z,0.30
2022-08-17T05:11:20.710Z,0.10
2022-08-17T05:14:33.530Z,0.20
2022-08-17T05:17:40.717Z,0.20
2022-08-17T05:20:49.321Z,0.77
2022-08-17T05:23:59.532Z,0.50
2022-08-17T05:27:07.077Z,0.30
2022-08-17T05:30:14.904Z,0.25
2022-08-17T05:33:24.089Z,0.40
2022-08-17T05:36:41.640Z,0.30
2022-08-17T05:39:50.660Z,0.30
2022-08-17T05:43:06.324Z,0.10
2022-08-17T05:46:18.199Z,0.40
2022-08-17T05:49:28.318Z,0.13
2022-08-17T05:52:41.284Z,0.30
2022-08-17T05:55:54.153Z,0.20
2022-08-17T05:59:11.115Z,0.20
2022-08-17T06:02:24.492Z,0.30
2022-08-17T06:05:45.172Z,0.22
2022-08-17T06:09:00.430Z,0.52
2022-08-17T06:12:32.339Z,0.20
2022-08-17T06:15:49.461Z,0.40
2022-08-17T06:18:58.912Z,0.32
2022-08-17T06:22:07.384Z,0.13
2022-08-17T06:25:18.067Z,0.30
2022-08-17T06:28:29.407Z,0.15
2022-08-17T06:31:38.559Z,0.10
2022-08-17T06:34:46.855Z,0.20
2022-08-17T06:38:05.054Z,0.10
2022-08-17T06:41:19.890Z,0.57
2022-08-17T06:44:42.243Z,0.40
2022-08-17T06:48:02.126Z,0.40
2022-08-17T06:51:12.355Z,0.52
2022-08-17T06:54:24.189Z,0.30
2022-08-17T06:57:33.915Z,0.13
2022-08-17T07:00:43.062Z,0.55
2022-08-17T07:03:54.918Z,0.38
2022-08-17T07:07:25.105Z,0.40
2022-08-17T07:10:38.249Z,0.20
2022-08-17T07:13:51.604Z,0.52
2022-08-17T07:17:00.519Z,0.40
2022-08-17T07:20:10.327Z,0.32
2022-08-17T07:23:24.026Z,0.25
2022-08-17T07:29:44.054Z,0.30
2022-08-17T07:32:54.783Z,0.50
2022-08-17T07:36:01.665Z,0.40
2022-08-17T07:39:09.913Z,0.88
2022-08-17T07:42:16.746Z,0.30
2022-08-17T07:45:42.972Z,0.60
2022-08-17T07:48:51.296Z,0.40
2022-08-17T07:52:47.350Z,0.30
2022-08-17T07:55:31.064Z,0.47
2022-08-17T07:58:37.825Z,0.52
2022-08-17T08:01:49.912Z,0.60
2022-08-17T08:05:10.141Z,0.50
2022-08-17T08:08:25.463Z,0.63
2022-08-17T08:11:34.535Z,1.00
2022-08-17T08:14:43.701Z,0.60
2022-08-17T08:17:55.533Z,0.80
2022-08-17T08:21:09.617Z,0.60
2022-08-17T08:24:42.058Z,0.95
2022-08-17T08:27:58.104Z,0.70
2022-08-17T08:31:09.712Z,0.60
2022-08-17T08:34:54.728Z,0.60
2022-08-17T08:37:56.839Z,1.10
2022-08-17T08:41:16.413Z,0.88
2022-08-17T08:45:00.245Z,0.60
2022-08-17T08:48:46.052Z,0.90
2022-08-17T08:51:53.184Z,0.77
2022-08-17T08:55:07.848Z,0.70
2022-08-17T08:58:31.816Z,1.05
2022-08-17T09:01:52.569Z,0.70
2022-08-17T09:05:14.367Z,0.80
2022-08-17T09:08:29.051Z,0.70
2022-08-17T09:12:02.045Z,0.98
2022-08-17T09:15:15.345Z,0.77
2022-08-17T09:19:02.770Z,0.60
2022-08-17T09:21:56.709Z,0.70
2022-08-17T09:25:09.801Z,1.02
2022-08-17T09:28:20.301Z,0.70
2022-08-17T09:31:35.521Z,0.50
2022-08-17T09:35:00.427Z,0.70
2022-08-17T09:38:19.742Z,0.73
2022-08-17T09:41:34.085Z,0.80
2022-08-17T09:44:44.154Z,0.80
2022-08-17T09:47:54.664Z,1.02
2022-08-17T09:51:06.989Z,1.02
2022-08-17T09:54:38.226Z,0.68
2022-08-17T09:57:55.594Z,0.57
2022-08-17T10:01:07.156Z,0.70
2022-08-17T10:04:30.596Z,0.40
2022-08-17T10:07:41.981Z,0.70
2022-08-17T10:10:56.647Z,0.50
2022-08-17T10:14:37.036Z,0.55
2022-08-17T10:17:42.368Z,0.40
2022-08-17T10:21:23.717Z,0.50
2022-08-17T10:25:21.149Z,1.02
2022-08-17T10:28:25.860Z,0.70
2022-08-17T10:31:40.172Z,0.90
2022-08-17T10:35:07.242Z,0.77
2022-08-17T10:38:31.326Z,0.80
2022-08-17T10:41:42.328Z,0.70
2022-08-17T10:44:52.527Z,0.65
2022-08-17T10:48:06.636Z,0.60
2022-08-17T10:51:38.143Z,0.85
2022-08-17T10:54:49.413Z,0.40
2022-08-17T10:58:21.271Z,0.47
2022-08-17T11:01:58.310Z,0.50
2022-08-17T11:05:27.717Z,1.00
2022-08-17T11:08:57.495Z,0.70
2022-08-17T11:12:16.850Z,0.65
2022-08-17T11:15:45.863Z,0.40
2022-08-17T11:19:12.202Z,0.30
2022-08-17T11:22:48.105Z,1.08
2022-08-17T11:25:57.022Z,0.57
2022-08-17T11:29:09.060Z,0.82
2022-08-17T11:32:47.223Z,0.52
2022-08-17T11:35:56.745Z,0.45
2022-08-17T11:39:20.881Z,0.35
2022-08-17T11:42:40.073Z,0.40
2022-08-17T11:45:59.559Z,0.45
2022-08-17T11:49:33.229Z,0.30
2022-08-17T11:52:45.990Z,0.35
2022-08-17T11:56:08.058Z,0.77
2022-08-17T11:59:51.684Z,0.40
2022-08-17T12:03:31.737Z,0.88
2022-08-17T12:06:48.432Z,1.13
2022-08-17T12:09:57.357Z,0.43
2022-08-17T12:13:13.068Z,0.20
2022-08-17T12:16:20.969Z,0.82
2022-08-17T12:19:29.646Z,0.47
2022-08-17T12:22:54.852Z,0.15
2022-08-17T12:26:06.503Z,0.63
2022-08-17T12:29:39.167Z,0.50
2022-08-17T12:32:47.743Z,0.75
2022-08-17T12:35:59.702Z,0.90
2022-08-17T12:39:13.944Z,0.47
2022-08-17T12:42:27.131Z,0.38
2022-08-17T12:45:39.394Z,0.98
2022-08-17T12:48:59.104Z,0.40
2022-08-17T12:52:18.037Z,0.20
2022-08-17T12:55:25.665Z,0.52
2022-08-17T12:58:47.610Z,0.30
2022-08-17T13:01:55.646Z,0.20
2022-08-17T13:05:04.159Z,0.90
2022-08-17T13:08:15.199Z,0.28
2022-08-17T13:11:24.708Z,0.47
2022-08-17T13:14:33.282Z,0.28
2022-08-17T13:17:42.347Z,0.30
2022-08-17T13:20:54.536Z,1.35
2022-08-17T13:24:03.274Z,0.60
2022-08-17T13:27:15.485Z,0.32
2022-08-17T13:30:27.269Z,0.40
2022-08-17T13:33:43.645Z,1.23
2022-08-17T13:36:53.069Z,0.40
2022-08-17T13:40:02.678Z,0.20
2022-08-17T13:43:11.188Z,0.15
2022-08-17T13:46:20.994Z,0.43
2022-08-17T13:49:41.904Z,0.20
2022-08-17T13:52:55.729Z,0.45
2022-08-17T13:56:05.733Z,0.20
2022-08-17T13:59:54.706Z,0.50
2022-08-17T14:03:03.729Z,0.43
2022-08-17T14:06:11.565Z,0.20
2022-08-17T14:09:37.191Z,0.20
2022-08-17T14:12:46.202Z,0.10
2022-08-17T14:15:55.785Z,0.28
2022-08-17T14:19:03.403Z,0.28
2022-08-17T14:22:16.415Z,0.38
2022-08-17T14:25:26.321Z,0.32
2022-08-17T14:28:33.628Z,0.30
2022-08-17T14:31:42.836Z,0.15
2022-08-17T14:35:00.938Z,0.00
2022-08-17T14:38:11.741Z,0.20
2022-08-17T14:41:22.033Z,0.00
2022-08-17T14:44:28.838Z,0.13
2022-08-17T14:47:36.254Z,0.45
2022-08-17T14:50:44.277Z,0.00
2022-08-17T14:53:52.319Z,0.25
2022-08-17T14:57:22.286Z,0.30
2022-08-17T15:00:26.262Z,0.30
2022-08-17T15:03:33.417Z,0.25
2022-08-17T15:06:40.214Z,0.10
2022-08-17T15:09:48.830Z,0.15
2022-08-17T15:12:56.411Z,0.38
2022-08-17T15:16:03.940Z,0.10
2022-08-17T15:19:10.859Z,0.40
2022-08-17T15:22:24.486Z,0.20
2022-08-17T15:25:33.874Z,0.00
2022-08-17T15:28:40.795Z,0.30
2022-08-17T15:31:48.096Z,0.47
2022-08-17T15:34:56.829Z,0.10
2022-08-17T15:38:11.341Z,0.10
2022-08-17T15:41:20.696Z,0.10
2022-08-17T15:44:32.428Z,0.25
2022-08-17T15:47:42.601Z,0.13
2022-08-17T15:50:49.842Z,0.15
2022-08-17T15:53:59.824Z,0.13
2022-08-17T15:57:12.672Z,0.30
2022-08-17T16:00:20.225Z,0.20
2022-08-17T16:03:58.198Z,0.22
2022-08-17T16:06:54.038Z,0.10
2022-08-17T16:10:01.310Z,0.20
2022-08-17T16:13:17.706Z,0.00
2022-08-17T16:16:26.183Z,0.08
2022-08-17T16:19:34.491Z,0.00
2022-08-17T16:22:44.281Z,0.10
2022-08-17T16:25:53.852Z,0.38
2022-08-17T16:29:06.121Z,0.00
2022-08-17T16:32:15.034Z,0.00
2022-08-17T16:35:25.134Z,0.20
2022-08-17T16:38:32.204Z,0.00
2022-08-17T16:41:44.671Z,0.30
2022-08-17T16:44:53.763Z,0.10
2022-08-17T16:48:01.793Z,0.10
2022-08-17T16:51:08.928Z,0.00
2022-08-17T16:54:17.726Z,0.30
2022-08-17T16:57:26.665Z,0.10
2022-08-17T17:00:34.961Z,0.38
2022-08-17T17:03:44.888Z,0.00
2022-08-17T17:06:57.838Z,0.32
2022-08-17T17:10:07.013Z,0.10
2022-08-17T17:13:17.426Z,0.00
2022-08-17T17:16:33.092Z,0.10
2022-08-17T17:19:43.036Z,0.10
2022-08-17T17:22:55.872Z,0.10
2022-08-17T17:26:11.144Z,0.00
2022-08-17T17:29:33.964Z,0.22
2022-08-17T17:33:00.934Z,0.00
2022-08-17T17:36:10.013Z,0.40
2022-08-17T17:39:20.934Z,0.10
2022-08-17T17:42:31.549Z,0.30
2022-08-17T17:45:44.087Z,0.10
2022-08-17T17:48:52.778Z,0.30
2022-08-17T17:52:09.954Z,0.00
2022-08-17T17:55:27.058Z,0.10
2022-08-17T17:58:42.915Z,0.00
2022-08-17T18:01:54.751Z,0.08
2022-08-17T18:05:05.588Z,0.20
2022-08-17T18:08:34.777Z,0.00
2022-08-17T18:12:04.749Z,0.13
2022-08-17T18:15:27.476Z,0.00
2022-08-17T18:18:40.348Z,0.00
2022-08-17T18:21:52.684Z,0.00
2022-08-17T18:24:59.759Z,0.10
2022-08-17T18:28:09.309Z,0.15
2022-08-17T18:31:18.946Z,0.08
2022-08-17T18:34:46.516Z,0.30
2022-08-17T18:37:57.986Z,0.00
2022-08-17T18:41:16.392Z,0.00
2022-08-17T18:44:28.961Z,0.38
2022-08-17T18:47:35.946Z,0.10
2022-08-17T18:50:43.088Z,0.10
2022-08-17T18:54:07.673Z,0.30
2022-08-17T18:57:34.880Z,0.10
2022-08-17T19:00:43.998Z,0.30
2022-08-17T19:03:51.826Z,0.10
2022-08-17T19:07:08.863Z,0.20
2022-08-17T19:10:22.794Z,0.17
2022-08-17T19:13:33.440Z,0.30
2022-08-17T19:16:47.239Z,0.10
2022-08-17T19:19:59.757Z,0.10
2022-08-17T19:23:13.033Z,0.00
2022-08-17T19:26:54.419Z,0.00
2022-08-17T19:29:54.628Z,0.35
2022-08-17T19:33:02.377Z,0.30
2022-08-17T19:36:13.810Z,0.00
2022-08-17T19:39:26.501Z,0.20
2022-08-17T19:42:54.408Z,0.20
2022-08-17T19:46:07.341Z,0.20
2022-08-17T19:49:19.913Z,0.20
2022-08-17T19:52:48.617Z,0.10
2022-08-17T19:56:01.499Z,0.17
2022-08-17T19:59:14.825Z,0.15
2022-08-17T20:02:33.175Z,0.30
2022-08-17T20:06:01.360Z,0.30
2022-08-17T20:09:15.162Z,0.15
2022-08-17T20:12:25.603Z,0.05
2022-08-17T20:15:37.919Z,0.28
2022-08-17T20:18:52.952Z,0.10
2022-08-17T20:22:03.075Z,0.17
2022-08-17T20:25:13.855Z,0.00
2022-08-17T20:28:25.172Z,0.20
2022-08-17T20:31:48.966Z,0.25
2022-08-17T20:35:11.415Z,0.20
2022-08-17T20:38:43.302Z,0.00
2022-08-17T20:42:05.567Z,0.20
2022-08-17T20:45:43.597Z,0.40
2022-08-17T20:48:54.287Z,0.47
2022-08-17T20:52:03.244Z,0.35
2022-08-17T20:55:10.700Z,0.00
2022-08-17T20:58:48.655Z,0.10
2022-08-17T21:02:08.893Z,0.00
2022-08-17T21:05:37.436Z,0.00
2022-08-17T21:08:53.291Z,0.10
2022-08-17T21:12:05.342Z,0.10
2022-08-17T21:15:29.719Z,0.00
2022-08-17T21:18:41.006Z,0.00
2022-08-17T21:22:02.056Z,0.10
2022-08-17T21:25:22.489Z,0.20
2022-08-17T21:28:35.728Z,0.05
2022-08-17T21:32:05.550Z,0.15
2022-08-17T21:35:26.269Z,0.20
2022-08-17T21:38:37.269Z,0.15
2022-08-17T21:41:52.868Z,0.10
2022-08-17T21:45:09.461Z,0.15
2022-08-17T21:48:18.279Z,0.00
2022-08-17T21:51:28.173Z,0.10
2022-08-17T21:54:38.944Z,0.10
2022-08-17T21:57:53.258Z,0.10
2022-08-17T22:01:21.192Z,0.00
2022-08-17T22:04:31.154Z,0.20
2022-08-17T22:07:42.168Z,0.10
2022-08-17T22:10:51.526Z,0.35
2022-08-17T22:14:00.646Z,0.20
2022-08-17T22:17:17.298Z,0.63
2022-08-17T22:20:24.078Z,0.00
2022-08-17T22:23:51.428Z,0.10
2022-08-17T22:27:03.447Z,0.20
2022-08-17T22:29:57.133Z,0.00
2022-08-17T22:32:47.711Z,0.10
2022-08-17T22:35:43.757Z,0.20
2022-08-17T22:38:33.201Z,0.47
2022-08-17T22:41:40.713Z,0.75
2022-08-17T22:44:32.334Z,0.30
2022-08-17T22:47:30.650Z,0.17
2022-08-17T22:50:23.709Z,0.17
2022-08-17T22:53:34.666Z,0.10
2022-08-17T22:56:42.968Z,0.15
2022-08-17T22:59:43.722Z,0.20
2022-08-17T23:02:34.964Z,0.10
2022-08-17T23:05:25.665Z,0.13
2022-08-17T23:08:14.309Z,0.10
2022-08-17T23:11:02.649Z,0.25
2022-08-17T23:13:51.178Z,0.28
2022-08-17T23:16:42.483Z,0.00
2022-08-17T23:19:31.893Z,0.28
2022-08-17T23:22:20.186Z,0.20
2022-08-17T23:25:09.192Z,0.30
2022-08-17T23:28:17.051Z,0.00
2022-08-17T23:31:25.973Z,0.10
2022-08-17T23:34:35.104Z,0.00
2022-08-17T23:37:41.964Z,0.10
2022-08-17T23:40:48.949Z,0.10
2022-08-17T23:43:56.258Z,0.00
2022-08-17T23:47:03.871Z,0.45
2022-08-17T23:50:12.260Z,0.10
2022-08-17T23:53:19.111Z,0.10
2022-08-17T23:56:26.209Z,0.00
2022-08-17T23:59:34.027Z,0.10
